Time;durP1;ratioP1;P1;durP2;ratioP2;P2;SDS_P1;SDS_P2;PMS_P1;PMS_P2;Temp;Humidity;BMP_temperature;BMP_pressure;BME280_temperature;BME280_humidity;BME280_pressure;Samples;Min_cycle;Max_cycle;Signal;HPM_P1;HPM_P2
2023/04/07 00:00:53;;;;;;;3.93;3.40;;;7.50;99.90;;;;;;6230464;23;20273;-86
2023/04/07 00:03:19;;;;;;;2.17;1.97;;;7.50;99.90;;;;;;6204339;23;20534;-87
2023/04/07 00:05:45;;;;;;;5.37;3.03;;;7.60;99.90;;;;;;6204504;23;20227;-85
2023/04/07 00:08:11;;;;;;;4.17;2.77;;;7.60;99.90;;;;;;6229302;23;20437;-86
2023/04/07 00:10:37;;;;;;;3.63;2.97;;;7.50;99.90;;;;;;6205015;23;20161;-86
2023/04/07 00:13:03;;;;;;;3.57;3.20;;;7.60;99.90;;;;;;6205877;23;20190;-85
2023/04/07 00:15:28;;;;;;;2.83;2.67;;;7.50;99.90;;;;;;6230530;23;20349;-86
2023/04/07 00:17:55;;;;;;;6.73;5.10;;;7.60;99.90;;;;;;6206277;23;20226;-86
2023/04/07 00:20:21;;;;;;;5.40;2.90;;;7.60;99.90;;;;;;6205355;23;20225;-86
2023/04/07 00:22:46;;;;;;;3.87;3.27;;;7.50;99.90;;;;;;6204945;23;20267;-86
2023/04/07 00:25:12;;;;;;;3.87;3.53;;;7.60;99.90;;;;;;6180287;23;20166;-86
2023/04/07 00:27:38;;;;;;;7.07;3.40;;;7.60;99.90;;;;;;6229744;23;20201;-87
2023/04/07 00:30:05;;;;;;;2.80;2.43;;;7.60;99.90;;;;;;6205171;23;20189;-86
2023/04/07 00:32:30;;;;;;;2.20;2.07;;;7.60;99.90;;;;;;6206548;23;20198;-86
2023/04/07 00:34:56;;;;;;;2.73;2.20;;;7.60;99.90;;;;;;6230192;23;21069;-86
2023/04/07 00:37:24;;;;;;;3.00;2.23;;;7.60;99.90;;;;;;6204962;23;20158;-87
2023/04/07 00:39:50;;;;;;;4.37;3.20;;;7.60;99.90;;;;;;6204385;23;20198;-86
2023/04/07 00:42:16;;;;;;;6.20;4.97;;;7.60;99.90;;;;;;6204699;23;20272;-85
2023/04/07 00:44:42;;;;;;;3.13;2.77;;;7.60;99.90;;;;;;6204138;23;20205;-86
2023/04/07 00:47:08;;;;;;;5.07;3.83;;;7.70;99.90;;;;;;6204078;23;20186;-85
2023/04/07 00:49:36;;;;;;;5.40;3.00;;;7.60;99.90;;;;;;6229397;23;20891;-86
2023/04/07 00:52:03;;;;;;;7.43;4.23;;;7.70;99.90;;;;;;6204498;23;20190;-86
2023/04/07 00:54:30;;;;;;;5.03;3.40;;;7.70;99.90;;;;;;6204869;23;20886;-86
2023/04/07 00:56:57;;;;;;;2.90;2.50;;;7.60;99.90;;;;;;6203940;23;20204;-86
2023/04/07 00:59:23;;;;;;;5.97;4.07;;;7.70;99.90;;;;;;6228874;23;20193;-85
2023/04/07 01:02:12;;;;;;;4.20;2.50;;;7.70;99.90;;;;;;6204344;23;20169;-87
2023/04/07 01:04:59;;;;;;;3.10;2.90;;;7.70;99.90;;;;;;6206065;23;20178;-87
2023/04/07 01:07:43;;;;;;;3.17;2.50;;;7.70;99.90;;;;;;6205341;23;20181;-86
2023/04/07 01:10:13;;;;;;;5.63;2.83;;;7.70;99.90;;;;;;6204870;23;20249;-87
2023/04/07 01:12:50;;;;;;;2.40;2.30;;;7.70;99.90;;;;;;6226335;23;20193;-87
2023/04/07 01:15:20;;;;;;;5.43;4.17;;;7.70;99.90;;;;;;6202664;23;20238;-87
2023/04/07 01:17:57;;;;;;;3.73;3.13;;;7.70;99.90;;;;;;6225760;23;20200;-85
2023/04/07 01:20:28;;;;;;;3.20;2.97;;;7.70;99.90;;;;;;6225997;23;20209;-85
2023/04/07 01:22:56;;;;;;;9.00;3.77;;;7.70;99.90;;;;;;6202194;23;20196;-86
2023/04/07 01:25:43;;;;;;;4.57;3.47;;;7.70;99.90;;;;;;6176564;23;20541;-88
2023/04/07 01:28:33;;;;;;;4.37;2.20;;;7.70;99.90;;;;;;6226713;23;20178;-89
2023/04/07 01:31:01;;;;;;;5.87;3.50;;;7.80;99.90;;;;;;6204937;23;20221;-86
2023/04/07 01:33:31;;;;;;;5.57;3.13;;;7.70;99.90;;;;;;6229113;23;20211;-85
2023/04/07 01:36:00;;;;;;;2.70;2.27;;;7.80;99.90;;;;;;6229266;23;20213;-86
2023/04/07 01:38:27;;;;;;;3.50;3.20;;;7.80;99.90;;;;;;6205551;23;20205;-86
2023/04/07 01:40:55;;;;;;;3.10;2.90;;;7.70;99.90;;;;;;6205571;23;20161;-86
2023/04/07 01:43:23;;;;;;;3.53;3.13;;;7.70;99.90;;;;;;6206614;23;20181;-85
2023/04/07 01:45:50;;;;;;;3.17;2.77;;;7.80;99.90;;;;;;6228159;23;20703;-87
2023/04/07 01:48:16;;;;;;;3.20;2.90;;;7.80;99.90;;;;;;6176176;23;20668;-85
2023/04/07 01:50:43;;;;;;;3.63;3.27;;;7.80;99.90;;;;;;6200490;23;20496;-85
2023/04/07 01:53:09;;;;;;;4.17;3.27;;;7.80;99.90;;;;;;6202979;23;20197;-85
2023/04/07 01:55:36;;;;;;;3.83;3.53;;;7.80;99.90;;;;;;6202963;23;20506;-86
2023/04/07 01:58:05;;;;;;;3.03;2.83;;;7.80;99.90;;;;;;6202448;23;20205;-85
2023/04/07 02:00:33;;;;;;;6.50;4.23;;;7.70;99.90;;;;;;6208694;23;20193;-88
2023/04/07 02:03:19;;;;;;;1.83;1.70;;;7.80;99.90;;;;;;6201047;23;20494;-88
2023/04/07 02:05:47;;;;;;;9.33;3.40;;;7.70;99.90;;;;;;6202821;23;20224;-85
2023/04/07 02:08:16;;;;;;;3.53;3.23;;;7.80;99.90;;;;;;6204851;23;20297;-85
2023/04/07 02:10:45;;;;;;;3.80;2.97;;;7.80;99.90;;;;;;6206706;23;20155;-84
2023/04/07 02:13:19;;;;;;;4.87;3.30;;;7.80;99.90;;;;;;6207404;23;20628;-87
2023/04/07 02:15:45;;;;;;;4.90;2.37;;;7.80;99.90;;;;;;6230818;23;20256;-84
2023/04/07 02:18:13;;;;;;;3.47;3.27;;;7.90;99.90;;;;;;6207026;23;20269;-85
2023/04/07 02:20:42;;;;;;;4.47;3.83;;;7.80;99.90;;;;;;6231677;23;20568;-85
2023/04/07 02:23:08;;;;;;;4.40;3.57;;;7.90;99.90;;;;;;6231046;23;20198;-85
2023/04/07 02:25:37;;;;;;;2.23;2.07;;;7.80;99.90;;;;;;6207573;23;20158;-84
2023/04/07 02:28:03;;;;;;;4.37;3.23;;;7.80;99.90;;;;;;6206880;23;20567;-85
2023/04/07 02:30:29;;;;;;;4.87;4.00;;;7.90;99.90;;;;;;6232308;23;20229;-85
2023/04/07 02:32:55;;;;;;;5.07;3.93;;;7.90;99.90;;;;;;6209766;23;20192;-85
2023/04/07 02:35:21;;;;;;;4.53;2.97;;;7.90;99.90;;;;;;6210147;23;20205;-86
2023/04/07 02:37:47;;;;;;;3.03;2.60;;;7.80;99.90;;;;;;6210038;23;20163;-85
2023/04/07 02:40:13;;;;;;;8.47;3.63;;;7.90;99.90;;;;;;6211120;23;20158;-85
2023/04/07 02:42:39;;;;;;;6.07;4.83;;;7.90;99.90;;;;;;6236478;23;20325;-84
2023/04/07 02:45:07;;;;;;;2.77;2.47;;;7.90;99.90;;;;;;6209530;23;20209;-85
2023/04/07 02:47:33;;;;;;;4.27;3.53;;;7.90;99.90;;;;;;6234095;23;20201;-85
2023/04/07 02:49:59;;;;;;;2.83;2.63;;;7.90;99.90;;;;;;6235511;23;20230;-85
2023/04/07 02:52:25;;;;;;;2.53;2.23;;;7.90;99.90;;;;;;6212400;23;20189;-85
2023/04/07 02:54:51;;;;;;;4.37;3.97;;;7.90;99.90;;;;;;6213415;23;20208;-86
2023/04/07 02:57:17;;;;;;;4.47;2.97;;;7.90;99.90;;;;;;6217490;23;20198;-85
2023/04/07 02:59:43;;;;;;;5.13;4.73;;;7.90;99.90;;;;;;6218133;23;20293;-86
2023/04/07 03:02:08;;;;;;;5.07;3.87;;;7.90;99.90;;;;;;6220184;23;20241;-85
2023/04/07 03:04:34;;;;;;;4.03;3.63;;;8.00;99.90;;;;;;6231172;23;20174;-89
2023/04/07 03:07:00;;;;;;;4.07;3.17;;;7.90;99.90;;;;;;6227778;23;20316;-87
2023/04/07 03:09:26;;;;;;;5.60;4.03;;;7.90;99.90;;;;;;6210094;23;20684;-87
2023/04/07 03:11:52;;;;;;;12.60;4.67;;;7.90;99.90;;;;;;6210245;23;20210;-86
2023/04/07 03:14:18;;;;;;;5.10;4.00;;;8.00;99.90;;;;;;6211119;23;20991;-86
2023/04/07 03:16:44;;;;;;;5.70;3.70;;;7.90;99.90;;;;;;6212662;23;20158;-87
2023/04/07 03:19:10;;;;;;;5.67;3.90;;;7.90;99.90;;;;;;6211392;23;20240;-86
2023/04/07 03:21:39;;;;;;;4.13;3.77;;;7.90;99.90;;;;;;6220386;23;20253;-87
2023/04/07 03:24:06;;;;;;;4.77;3.73;;;7.90;99.90;;;;;;6225665;23;20199;-87
2023/04/07 03:26:32;;;;;;;5.30;3.93;;;8.00;99.90;;;;;;6222791;23;20186;-87
2023/04/07 03:28:57;;;;;;;4.03;3.57;;;8.00;99.90;;;;;;6207440;23;20624;-87
2023/04/07 03:31:23;;;;;;;6.37;3.93;;;8.00;99.90;;;;;;6206440;23;20664;-86
2023/04/07 03:33:49;;;;;;;3.23;3.03;;;8.00;99.90;;;;;;6205794;23;20228;-90
2023/04/07 03:36:17;;;;;;;9.63;3.30;;;8.00;99.90;;;;;;6207480;23;20255;-87
2023/04/07 03:38:43;;;;;;;4.57;3.67;;;7.90;99.90;;;;;;6205646;23;20261;-86
2023/04/07 03:41:09;;;;;;;2.23;2.13;;;8.00;99.90;;;;;;6231358;23;20272;-87
2023/04/07 03:43:35;;;;;;;3.73;3.37;;;8.00;99.90;;;;;;6206281;23;20233;-87
2023/04/07 03:46:01;;;;;;;3.87;3.37;;;8.00;99.90;;;;;;6231026;23;20755;-89
2023/04/07 03:48:26;;;;;;;6.63;4.67;;;8.00;99.90;;;;;;6205934;23;20213;-88
2023/04/07 03:50:52;;;;;;;7.13;5.23;;;8.00;99.90;;;;;;6205721;23;20194;-86
2023/04/07 03:53:18;;;;;;;4.83;3.30;;;8.00;99.90;;;;;;6205588;23;20181;-88
2023/04/07 03:55:45;;;;;;;1.73;1.63;;;8.00;99.90;;;;;;6206632;23;20665;-87
2023/04/07 03:58:10;;;;;;;5.10;3.50;;;8.00;99.90;;;;;;6207631;23;20154;-87
2023/04/07 04:00:36;;;;;;;6.23;4.13;;;8.00;99.90;;;;;;6206764;23;20198;-86
2023/04/07 04:03:02;;;;;;;5.80;3.97;;;8.00;99.90;;;;;;6206863;23;20438;-88
2023/04/07 04:05:28;;;;;;;6.17;3.50;;;8.00;99.90;;;;;;6231139;23;20189;-88
2023/04/07 04:07:54;;;;;;;3.77;3.40;;;8.10;99.90;;;;;;6230562;23;20792;-87
2023/04/07 04:10:20;;;;;;;6.43;4.50;;;8.10;99.90;;;;;;6207780;23;20153;-87
2023/04/07 04:12:47;;;;;;;3.77;2.87;;;8.10;99.90;;;;;;6206540;23;20189;-87
2023/04/07 04:15:13;;;;;;;8.43;4.87;;;8.20;99.90;;;;;;6206696;23;20210;-88
2023/04/07 04:17:40;;;;;;;3.73;3.20;;;8.10;99.90;;;;;;6205414;23;20193;-86
2023/04/07 04:20:07;;;;;;;7.80;4.40;;;8.10;99.90;;;;;;6206672;23;20206;-86
2023/04/07 04:22:33;;;;;;;8.03;4.60;;;8.10;99.90;;;;;;6206033;23;20170;-87
2023/04/07 04:24:59;;;;;;;5.70;4.13;;;8.10;99.90;;;;;;6205202;23;20194;-86
2023/04/07 04:27:25;;;;;;;3.57;3.13;;;8.20;99.90;;;;;;6206883;23;20194;-86
2023/04/07 04:29:52;;;;;;;5.07;3.57;;;8.10;99.90;;;;;;6180065;23;20269;-86
2023/04/07 04:32:18;;;;;;;8.20;5.57;;;8.10;99.90;;;;;;6206215;23;20194;-87
2023/04/07 04:34:44;;;;;;;7.23;4.90;;;8.10;99.90;;;;;;6205429;23;20182;-86
2023/04/07 04:37:10;;;;;;;6.73;6.07;;;8.10;99.90;;;;;;6206801;23;20215;-88
2023/04/07 04:39:36;;;;;;;9.10;4.70;;;8.20;99.90;;;;;;6203679;23;20652;-88
2023/04/07 04:42:02;;;;;;;4.87;4.30;;;8.10;99.90;;;;;;6178818;23;20194;-85
2023/04/07 04:44:29;;;;;;;5.73;3.47;;;8.10;99.90;;;;;;6204576;23;20190;-84
2023/04/07 04:46:55;;;;;;;7.07;5.23;;;8.10;99.90;;;;;;6204460;23;20233;-84
2023/04/07 04:49:21;;;;;;;3.73;3.00;;;8.20;99.90;;;;;;6230047;23;20150;-86
2023/04/07 04:51:47;;;;;;;5.63;3.70;;;8.20;99.90;;;;;;6205797;23;20201;-88
2023/04/07 04:54:13;;;;;;;9.23;3.10;;;8.20;99.90;;;;;;6204309;23;20521;-84
2023/04/07 04:56:38;;;;;;;3.73;3.30;;;8.10;99.90;;;;;;6204351;23;20369;-85
2023/04/07 04:59:04;;;;;;;5.20;4.20;;;8.10;99.90;;;;;;6204665;23;20628;-85
2023/04/07 05:01:30;;;;;;;5.03;3.67;;;8.10;99.90;;;;;;6205139;23;20164;-87
2023/04/07 05:03:56;;;;;;;3.40;2.73;;;8.10;99.90;;;;;;6206136;23;20268;-85
2023/04/07 05:06:22;;;;;;;5.20;4.23;;;8.10;99.90;;;;;;6205684;23;20198;-86
2023/04/07 05:08:48;;;;;;;2.53;2.13;;;8.10;99.90;;;;;;6204262;23;20644;-85
2023/04/07 05:11:13;;;;;;;5.20;4.53;;;8.00;99.90;;;;;;6204920;23;20190;-87
2023/04/07 05:13:39;;;;;;;7.90;3.00;;;8.10;99.90;;;;;;6204507;23;20254;-87
2023/04/07 05:16:05;;;;;;;3.20;3.00;;;8.10;99.90;;;;;;6204864;23;20312;-85
2023/04/07 05:18:31;;;;;;;3.47;3.07;;;8.10;99.90;;;;;;6204481;23;20214;-87
2023/04/07 05:20:57;;;;;;;5.83;3.37;;;8.10;99.90;;;;;;6205620;23;20209;-85
2023/04/07 05:23:23;;;;;;;5.13;4.43;;;8.10;99.90;;;;;;6203168;23;20218;-84
2023/04/07 05:25:49;;;;;;;6.10;3.80;;;8.10;99.90;;;;;;6204331;23;20593;-87
2023/04/07 05:28:15;;;;;;;4.27;3.87;;;8.10;99.90;;;;;;6228802;23;20263;-85
2023/04/07 05:30:41;;;;;;;4.23;3.67;;;8.10;99.90;;;;;;6203859;23;20190;-85
2023/04/07 05:33:07;;;;;;;3.33;3.03;;;8.00;99.90;;;;;;6205879;23;20194;-85
2023/04/07 05:35:33;;;;;;;4.23;2.77;;;8.10;99.90;;;;;;6205839;23;20210;-86
2023/04/07 05:37:58;;;;;;;6.53;3.07;;;8.10;99.90;;;;;;6206062;23;20287;-85
2023/04/07 05:40:24;;;;;;;2.93;2.03;;;8.10;99.90;;;;;;6180035;23;20177;-86
2023/04/07 05:42:50;;;;;;;2.53;1.83;;;8.00;99.90;;;;;;6205066;23;20189;-85
2023/04/07 05:45:16;;;;;;;5.73;2.10;;;8.00;99.90;;;;;;6230865;23;20418;-86
2023/04/07 05:47:41;;;;;;;4.73;1.83;;;8.00;99.90;;;;;;6207143;23;20189;-85
2023/04/07 05:50:08;;;;;;;2.83;2.07;;;8.00;99.90;;;;;;6231449;23;20186;-85
2023/04/07 05:52:34;;;;;;;3.27;1.80;;;8.00;99.90;;;;;;6206801;23;20181;-87
2023/04/07 05:54:59;;;;;;;2.57;1.63;;;7.90;99.90;;;;;;6206041;23;20240;-85
2023/04/07 05:57:26;;;;;;;1.57;1.57;;;8.00;99.90;;;;;;6206197;23;20194;-87
2023/04/07 05:59:52;;;;;;;2.20;2.10;;;8.00;99.90;;;;;;6206116;23;20714;-86
2023/04/07 06:02:18;;;;;;;5.67;1.90;;;8.00;99.90;;;;;;6206101;23;20193;-85
2023/04/07 06:04:44;;;;;;;2.83;2.40;;;8.10;99.90;;;;;;6205670;23;20165;-86
2023/04/07 06:07:09;;;;;;;1.03;0.90;;;8.00;99.90;;;;;;6207640;23;20499;-85
2023/04/07 06:09:35;;;;;;;1.87;1.77;;;8.00;99.90;;;;;;6205335;23;20641;-85
2023/04/07 06:12:03;;;;;;;5.67;1.90;;;8.00;99.90;;;;;;6205324;23;20194;-85
2023/04/07 06:14:29;;;;;;;1.43;1.43;;;8.00;99.90;;;;;;6230773;23;20197;-85
2023/04/07 06:16:55;;;;;;;2.43;1.67;;;8.10;99.90;;;;;;6206208;23;20502;-83
2023/04/07 06:19:21;;;;;;;4.40;1.63;;;8.00;99.90;;;;;;6207810;23;20194;-85
2023/04/07 06:21:47;;;;;;;3.00;1.77;;;8.10;99.90;;;;;;6207680;23;20423;-85
2023/04/07 06:24:13;;;;;;;1.70;1.60;;;8.10;99.90;;;;;;6181760;23;20272;-86
2023/04/07 06:26:39;;;;;;;1.37;1.33;;;8.00;99.90;;;;;;6234837;23;20253;-85
2023/04/07 06:29:05;;;;;;;1.07;1.07;;;8.10;99.90;;;;;;6211741;23;20190;-84
2023/04/07 06:31:31;;;;;;;3.20;2.73;;;8.10;99.90;;;;;;6186686;23;20520;-85
2023/04/07 06:33:57;;;;;;;3.53;3.33;;;8.10;99.90;;;;;;6186133;23;20644;-84
2023/04/07 06:36:22;;;;;;;3.10;1.33;;;8.20;99.90;;;;;;6210665;23;20805;-85
2023/04/07 06:38:48;;;;;;;3.47;3.27;;;8.10;99.90;;;;;;6185489;23;20198;-85
2023/04/07 06:41:16;;;;;;;1.80;1.70;;;8.10;99.90;;;;;;6209415;23;20189;-85
2023/04/07 06:43:50;;;;;;;3.40;2.10;;;8.20;99.90;;;;;;6211025;23;20158;-85
2023/04/07 06:46:16;;;;;;;3.27;2.13;;;8.20;99.90;;;;;;6213202;23;20168;-85
2023/04/07 06:48:42;;;;;;;2.13;1.97;;;8.20;99.90;;;;;;6214744;23;20189;-84
2023/04/07 06:51:08;;;;;;;2.33;1.47;;;8.20;99.90;;;;;;6215813;23;20201;-85
2023/04/07 06:53:33;;;;;;;3.70;2.53;;;8.20;99.90;;;;;;6237851;23;20613;-84
2023/04/07 06:56:17;;;;;;;3.00;2.77;;;8.20;99.90;;;;;;6218603;23;20253;-83
2023/04/07 06:58:43;;;;;;;1.57;1.47;;;8.20;99.90;;;;;;6219999;23;20158;-82
2023/04/07 07:01:09;;;;;;;4.20;3.80;;;8.20;99.90;;;;;;6215978;23;20154;-86
2023/04/07 07:03:35;;;;;;;3.30;3.00;;;8.20;99.90;;;;;;6209141;23;20600;-85
2023/04/07 07:06:04;;;;;;;2.93;1.83;;;8.20;99.90;;;;;;6232683;23;20706;-85
2023/04/07 07:08:29;;;;;;;4.80;3.20;;;8.30;99.90;;;;;;6210869;23;20629;-87
2023/04/07 07:10:55;;;;;;;3.57;2.50;;;8.30;99.90;;;;;;6209543;23;20232;-85
2023/04/07 07:13:24;;;;;;;1.97;1.80;;;8.20;99.90;;;;;;6210311;23;20923;-89
2023/04/07 07:15:50;;;;;;;1.57;1.40;;;8.20;99.90;;;;;;6217063;23;20281;-83
2023/04/07 07:18:17;;;;;;;2.90;2.63;;;8.20;99.90;;;;;;6215485;23;20217;-86
2023/04/07 07:20:42;;;;;;;4.93;3.77;;;8.30;99.90;;;;;;6209875;23;20206;-87
2023/04/07 07:23:08;;;;;;;2.57;1.93;;;8.20;99.90;;;;;;6205498;23;20197;-85
2023/04/07 07:25:34;;;;;;;1.43;1.43;;;8.30;99.90;;;;;;6206980;23;20206;-85
2023/04/07 07:28:00;;;;;;;1.73;1.63;;;8.30;99.90;;;;;;6230413;23;20205;-85
2023/04/07 07:30:26;;;;;;;2.33;1.93;;;8.30;99.90;;;;;;6230485;23;20633;-87
2023/04/07 07:32:52;;;;;;;5.10;4.40;;;8.30;99.90;;;;;;6206705;23;20196;-85
2023/04/07 07:35:19;;;;;;;5.60;2.90;;;8.40;99.90;;;;;;6206329;23;20296;-84
2023/04/07 07:37:45;;;;;;;0.73;0.70;;;8.40;99.90;;;;;;6206448;23;20265;-85
2023/04/07 07:40:11;;;;;;;1.77;1.67;;;8.50;99.90;;;;;;6207603;23;20157;-84
2023/04/07 07:42:37;;;;;;;1.50;1.40;;;8.50;99.90;;;;;;6230548;23;20202;-85
2023/04/07 07:45:03;;;;;;;2.23;2.13;;;8.60;99.90;;;;;;6204821;23;20203;-85
2023/04/07 07:47:29;;;;;;;3.17;2.90;;;8.50;99.90;;;;;;6230045;23;20198;-83
2023/04/07 07:49:55;;;;;;;2.10;2.00;;;8.70;99.90;;;;;;6204234;23;20991;-84
2023/04/07 07:52:20;;;;;;;2.37;2.17;;;8.70;99.90;;;;;;6207305;23;20162;-83
2023/04/07 07:54:50;;;;;;;4.23;2.47;;;8.70;99.90;;;;;;6205282;23;20202;-84
2023/04/07 07:57:16;;;;;;;2.27;1.97;;;8.70;99.90;;;;;;6206928;23;20198;-85
2023/04/07 07:59:41;;;;;;;3.67;2.37;;;8.70;99.90;;;;;;6205264;23;20528;-83
2023/04/07 08:02:08;;;;;;;2.27;2.07;;;8.60;99.90;;;;;;6229022;23;20868;-84
2023/04/07 08:04:35;;;;;;;3.00;2.83;;;8.70;99.90;;;;;;6206936;23;20196;-85
2023/04/07 08:07:01;;;;;;;3.00;2.63;;;8.70;99.90;;;;;;6204775;23;20272;-86
2023/04/07 08:09:27;;;;;;;3.13;2.93;;;8.80;99.90;;;;;;6230801;23;20201;-85
2023/04/07 08:11:52;;;;;;;3.50;2.23;;;8.90;99.90;;;;;;6204649;23;20190;-85
2023/04/07 08:14:19;;;;;;;0.97;0.87;;;8.90;99.90;;;;;;6207248;23;20219;-85
2023/04/07 08:16:45;;;;;;;3.27;2.13;;;8.90;99.90;;;;;;6206336;23;20278;-85
2023/04/07 08:19:12;;;;;;;2.80;2.60;;;8.90;99.90;;;;;;6207379;23;20217;-86
2023/04/07 08:21:38;;;;;;;4.10;3.73;;;8.90;99.90;;;;;;6228025;23;20525;-85
2023/04/07 08:24:04;;;;;;;3.53;3.23;;;8.90;99.90;;;;;;6202811;23;20194;-90
2023/04/07 08:26:31;;;;;;;7.00;3.30;;;9.00;99.90;;;;;;6201554;23;20243;-85
2023/04/07 08:28:57;;;;;;;4.00;2.17;;;9.00;99.90;;;;;;6226468;23;20185;-86
2023/04/07 08:31:23;;;;;;;2.00;1.73;;;9.00;99.90;;;;;;6203752;23;20585;-85
2023/04/07 08:33:52;;;;;;;4.13;2.77;;;9.00;99.90;;;;;;6225848;23;20228;-86
2023/04/07 08:36:19;;;;;;;4.73;4.33;;;9.10;99.90;;;;;;6202557;23;20232;-85
2023/04/07 08:38:45;;;;;;;3.63;3.07;;;9.10;99.90;;;;;;6175799;23;20190;-85
2023/04/07 08:41:16;;;;;;;4.03;2.93;;;9.10;99.90;;;;;;6227326;23;20190;-88
2023/04/07 08:43:43;;;;;;;3.17;2.93;;;9.10;99.90;;;;;;6203932;23;20181;-88
2023/04/07 08:46:09;;;;;;;5.83;4.43;;;9.10;99.90;;;;;;6228571;23;20169;-86
2023/04/07 08:48:37;;;;;;;4.37;3.53;;;9.20;99.90;;;;;;6228388;23;20565;-84
2023/04/07 08:51:09;;;;;;;6.40;2.73;;;9.30;99.90;;;;;;6205468;23;20197;-85
2023/04/07 08:53:48;;;;;;;4.27;3.60;;;9.20;99.90;;;;;;6195728;23;20194;-85
2023/04/07 08:56:15;;;;;;;4.77;4.30;;;9.30;99.90;;;;;;6225118;23;20251;-85
2023/04/07 08:58:41;;;;;;;3.43;3.17;;;9.40;99.90;;;;;;6222895;23;20178;-87
2023/04/07 09:01:08;;;;;;;4.60;2.97;;;9.50;99.90;;;;;;6198255;23;20176;-84
2023/04/07 09:03:34;;;;;;;2.87;2.63;;;9.50;99.90;;;;;;6197356;23;20205;-87
2023/04/07 09:06:03;;;;;;;3.37;3.17;;;9.60;99.90;;;;;;6224663;23;20186;-88
2023/04/07 09:08:29;;;;;;;1.87;1.70;;;9.70;99.90;;;;;;6200666;23;20562;-86
2023/04/07 09:10:58;;;;;;;3.27;3.03;;;9.80;99.90;;;;;;6197442;23;20162;-87
2023/04/07 09:13:24;;;;;;;4.00;3.63;;;9.80;99.90;;;;;;6202714;23;20158;-87
2023/04/07 09:15:50;;;;;;;5.07;2.93;;;9.90;99.90;;;;;;6202602;23;20206;-86
2023/04/07 09:18:16;;;;;;;4.90;3.63;;;10.00;99.90;;;;;;6201778;23;20201;-86
2023/04/07 09:21:03;;;;;;;3.53;2.67;;;10.10;99.90;;;;;;6226367;23;20209;-85
2023/04/07 09:23:30;;;;;;;4.07;3.70;;;10.40;99.90;;;;;;6205210;23;20288;-84
2023/04/07 09:25:58;;;;;;;6.93;3.13;;;10.30;99.90;;;;;;6203493;23;20165;-84
2023/04/07 09:28:25;;;;;;;3.77;2.80;;;10.10;99.90;;;;;;6230534;23;20450;-86
2023/04/07 09:30:54;;;;;;;4.23;3.57;;;10.00;99.90;;;;;;6203494;23;20198;-83
2023/04/07 09:33:27;;;;;;;3.27;2.07;;;10.10;99.90;;;;;;6204343;23;20205;-85
2023/04/07 09:35:53;;;;;;;2.73;2.53;;;10.20;99.90;;;;;;6205023;23;20285;-84
2023/04/07 09:38:19;;;;;;;3.30;2.70;;;10.30;99.90;;;;;;6203204;23;20182;-85
2023/04/07 09:40:44;;;;;;;4.83;4.13;;;10.40;99.90;;;;;;6205014;23;20169;-85
2023/04/07 09:43:16;;;;;;;2.50;2.30;;;10.70;99.90;;;;;;6205217;23;20163;-86
2023/04/07 09:45:41;;;;;;;3.53;2.60;;;10.80;99.90;;;;;;6204964;23;20202;-85
2023/04/07 09:48:17;;;;;;;5.90;3.03;;;10.60;99.90;;;;;;6178623;23;20201;-84
2023/04/07 09:50:48;;;;;;;3.27;2.57;;;10.50;99.90;;;;;;6229231;23;20198;-85
2023/04/07 09:53:18;;;;;;;3.47;3.03;;;10.70;99.90;;;;;;6205352;23;20190;-85
2023/04/07 09:55:44;;;;;;;7.43;3.67;;;10.70;99.90;;;;;;6229360;23;20269;-86
2023/04/07 09:58:15;;;;;;;3.43;2.10;;;10.80;99.90;;;;;;6205120;23;20165;-84
2023/04/07 10:00:41;;;;;;;3.07;2.77;;;10.80;99.90;;;;;;6203908;23;20190;-85
2023/04/07 10:03:07;;;;;;;3.33;2.67;;;10.60;99.90;;;;;;6205309;23;20554;-85
2023/04/07 10:05:35;;;;;;;3.17;2.77;;;10.60;99.90;;;;;;6205284;23;20225;-86
2023/04/07 10:08:01;;;;;;;4.93;2.97;;;10.50;99.90;;;;;;6228919;23;20220;-84
2023/04/07 10:10:29;;;;;;;2.90;2.57;;;10.70;99.90;;;;;;6205359;23;20589;-85
2023/04/07 10:12:57;;;;;;;2.97;2.67;;;10.90;99.90;;;;;;6205085;23;20196;-83
2023/04/07 10:15:23;;;;;;;2.90;2.57;;;10.70;99.90;;;;;;6205009;23;20293;-84
2023/04/07 10:17:50;;;;;;;4.60;3.23;;;10.70;99.90;;;;;;6228226;23;20525;-86
2023/04/07 10:20:19;;;;;;;2.47;2.27;;;10.70;99.90;;;;;;6229319;23;20652;-84
2023/04/07 10:22:49;;;;;;;2.13;2.00;;;10.70;99.90;;;;;;6205997;23;20162;-84
2023/04/07 10:25:18;;;;;;;2.13;2.00;;;10.70;99.90;;;;;;6207179;23;20154;-83
2023/04/07 10:27:59;;;;;;;2.23;2.03;;;10.70;99.90;;;;;;6207096;23;20724;-83
2023/04/07 10:30:27;;;;;;;2.37;2.13;;;10.80;99.90;;;;;;6234139;23;20271;-83
2023/04/07 10:32:54;;;;;;;4.33;2.93;;;10.80;99.90;;;;;;6209560;23;20248;-83
2023/04/07 10:35:20;;;;;;;2.47;1.47;;;10.90;99.90;;;;;;6207003;23;20229;-84
2023/04/07 10:38:07;;;;;;;4.63;3.10;;;10.80;99.90;;;;;;6231361;23;20468;-83
2023/04/07 10:40:34;;;;;;;3.57;3.00;;;10.90;99.90;;;;;;6210007;23;20158;-84
2023/04/07 10:43:00;;;;;;;2.10;1.73;;;11.00;99.90;;;;;;6208067;23;20197;-84
2023/04/07 10:45:48;;;;;;;4.20;3.33;;;11.00;99.90;;;;;;6209110;23;20544;-84
2023/04/07 10:48:18;;;;;;;5.77;2.23;;;10.90;99.90;;;;;;6210655;23;20695;-83
2023/04/07 10:50:45;;;;;;;1.83;1.73;;;10.70;99.90;;;;;;6210111;23;20556;-84
2023/04/07 10:53:12;;;;;;;1.97;1.70;;;10.70;99.90;;;;;;6207717;23;20235;-82
2023/04/07 10:55:39;;;;;;;1.60;1.13;;;10.70;99.90;;;;;;6230663;23;20194;-82
2023/04/07 10:58:30;;;;;;;1.50;1.40;;;10.80;99.90;;;;;;6204412;23;20194;-84
2023/04/07 11:00:56;;;;;;;2.33;2.10;;;10.90;99.90;;;;;;6206679;23;20300;-85
2023/04/07 11:03:23;;;;;;;3.30;3.00;;;10.90;99.90;;;;;;6205323;23;20281;-84
2023/04/07 11:05:49;;;;;;;2.10;1.57;;;10.90;99.90;;;;;;6204505;23;20587;-84
2023/04/07 11:08:15;;;;;;;2.60;2.33;;;11.00;99.90;;;;;;6204007;23;20248;-83
2023/04/07 11:10:47;;;;;;;1.63;1.47;;;11.00;99.90;;;;;;6202885;23;20257;-82
2023/04/07 11:13:12;;;;;;;2.23;1.80;;;11.00;99.90;;;;;;6204034;23;20150;-84
2023/04/07 11:15:38;;;;;;;4.07;3.37;;;11.00;99.90;;;;;;6203439;23;20508;-85
2023/04/07 11:18:11;;;;;;;1.20;1.13;;;11.20;99.90;;;;;;6204404;23;20339;-84
2023/04/07 11:21:07;;;;;;;2.20;2.10;;;11.40;99.90;;;;;;6201680;23;20213;-84
2023/04/07 11:23:44;;;;;;;1.60;1.50;;;11.40;99.90;;;;;;6191705;23;20256;-83
2023/04/07 11:26:11;;;;;;;1.60;1.50;;;11.60;99.90;;;;;;6202574;23;20363;-83
2023/04/07 11:28:48;;;;;;;3.70;3.40;;;11.80;99.90;;;;;;6224299;23;20645;-86
2023/04/07 11:31:25;;;;;;;5.13;2.67;;;12.20;99.90;;;;;;6203705;23;20190;-84
2023/04/07 11:33:53;;;;;;;2.47;2.27;;;12.00;99.90;;;;;;6203217;23;20526;-85
2023/04/07 11:36:27;;;;;;;1.87;1.60;;;12.30;99.90;;;;;;6205541;23;20202;-84
2023/04/07 11:38:53;;;;;;;1.53;1.43;;;12.10;99.90;;;;;;6204460;23;20926;-85
2023/04/07 11:41:19;;;;;;;1.83;1.43;;;11.90;99.90;;;;;;6205113;23;20185;-84
2023/04/07 11:43:44;;;;;;;2.97;2.37;;;12.10;99.90;;;;;;6229258;23;20933;-84
2023/04/07 11:46:11;;;;;;;2.33;2.17;;;12.00;99.90;;;;;;6204364;23;20399;-83
2023/04/07 11:48:39;;;;;;;3.10;2.40;;;11.90;99.90;;;;;;6230425;23;20198;-85
2023/04/07 11:51:13;;;;;;;1.60;1.50;;;12.10;99.90;;;;;;6230371;23;20182;-87
2023/04/07 11:53:39;;;;;;;2.13;1.87;;;12.20;99.90;;;;;;6206924;23;20184;-84
2023/04/07 11:56:15;;;;;;;1.60;1.50;;;12.20;99.90;;;;;;6206004;23;20200;-85
2023/04/07 11:58:50;;;;;;;1.80;1.63;;;12.10;99.90;;;;;;6231225;23;20220;-85
2023/04/07 12:01:17;;;;;;;3.47;3.17;;;12.20;99.90;;;;;;6205618;23;20296;-85
2023/04/07 12:04:00;;;;;;;2.53;1.93;;;12.00;99.90;;;;;;6206773;23;20201;-84
2023/04/07 12:06:37;;;;;;;1.50;1.27;;;12.00;99.90;;;;;;6230544;23;20662;-85
2023/04/07 12:09:07;;;;;;;2.00;1.80;;;12.00;99.90;;;;;;6205790;23;20190;-84
2023/04/07 12:11:34;;;;;;;3.10;2.80;;;11.80;99.90;;;;;;6207493;23;20165;-85
2023/04/07 12:14:03;;;;;;;4.50;2.50;;;11.70;99.90;;;;;;6206926;23;20150;-85
2023/04/07 12:16:29;;;;;;;3.63;3.33;;;11.70;99.90;;;;;;6229578;23;20292;-88
2023/04/07 12:18:56;;;;;;;2.73;1.93;;;11.50;99.90;;;;;;6205892;23;20525;-84
2023/04/07 12:21:23;;;;;;;4.27;2.70;;;11.50;99.90;;;;;;6230217;23;20202;-84
2023/04/07 12:23:48;;;;;;;6.50;3.10;;;11.60;99.90;;;;;;6205269;23;20186;-85
2023/04/07 12:26:14;;;;;;;2.93;2.63;;;11.60;99.90;;;;;;6207248;23;20615;-86
2023/04/07 12:28:40;;;;;;;2.97;2.57;;;11.60;99.90;;;;;;6205493;23;20202;-85
2023/04/07 12:31:05;;;;;;;2.37;2.17;;;11.50;99.90;;;;;;6204797;23;20194;-82
2023/04/07 12:33:31;;;;;;;4.17;2.10;;;11.70;99.90;;;;;;6229175;23;20625;-83
2023/04/07 12:35:57;;;;;;;3.70;2.83;;;11.80;99.90;;;;;;6203945;23;20205;-83
2023/04/07 12:38:23;;;;;;;2.17;1.90;;;11.70;99.90;;;;;;6204116;23;20153;-84
2023/04/07 12:40:50;;;;;;;2.33;1.53;;;11.70;99.90;;;;;;6204174;23;20189;-82
2023/04/07 12:43:16;;;;;;;4.33;2.70;;;11.60;99.90;;;;;;6178400;23;20304;-83
2023/04/07 12:45:42;;;;;;;3.40;2.20;;;11.80;99.90;;;;;;6203262;23;21134;-84
2023/04/07 12:48:08;;;;;;;1.97;1.83;;;11.80;99.90;;;;;;6205046;23;20189;-84
2023/04/07 12:50:35;;;;;;;2.03;1.93;;;11.80;99.90;;;;;;6228817;23;20178;-83
2023/04/07 12:53:04;;;;;;;2.07;1.97;;;11.80;99.90;;;;;;6205153;23;20197;-84
2023/04/07 12:55:32;;;;;;;1.97;1.87;;;11.70;99.90;;;;;;6228469;23;20288;-84
2023/04/07 12:57:59;;;;;;;2.70;2.47;;;11.60;99.90;;;;;;6203225;23;20196;-82